<?xml version="1.0" encoding="UTF-8" standalone="no" ?>
<gpx xmlns="http://www.topografix.com/GPX/1/1" xmlns:xsi="http://www.w3.org/2001/XMLSchema-instance" xsi:schemaLocation="http://www.topografix.com/GPX/1/1 http://www.topografix.com/GPX/1/1/gpx.xsd" version="1.1" creator="VisuGPX - https://www.visugpx.com">
  <metadata>
    <name>13939638-6 aigrefeuille pont caffino</name>
  </metadata>
  <trk>
    <name><![CDATA[13939638-6 aigrefeuille pont caffino]]></name>
    <trkseg>
      <trkpt lat="47.07742" lon="-1.39813">
        <ele>39</ele>
        <time>2021-12-03T16:28:16Z</time>
      </trkpt>
      <trkpt lat="47.07754" lon="-1.39794">
        <ele>38</ele>
        <time>2021-12-03T16:28:40Z</time>
      </trkpt>
      <trkpt lat="47.07764" lon="-1.39786">
        <ele>37</ele>
        <time>2021-12-03T16:28:55Z</time>
      </trkpt>
      <trkpt lat="47.07795" lon="-1.3974">
        <ele>35</ele>
        <time>2021-12-03T16:29:54Z</time>
      </trkpt>
      <trkpt lat="47.078" lon="-1.39742">
        <ele>35</ele>
        <time>2021-12-03T16:30:00Z</time>
      </trkpt>
      <trkpt lat="47.07834" lon="-1.39793">
        <ele>38</ele>
        <time>2021-12-03T16:31:05Z</time>
      </trkpt>
      <trkpt lat="47.07865" lon="-1.39821">
        <ele>38</ele>
        <time>2021-12-03T16:31:54Z</time>
      </trkpt>
      <trkpt lat="47.07877" lon="-1.39835">
        <ele>39</ele>
        <time>2021-12-03T16:32:14Z</time>
      </trkpt>
      <trkpt lat="47.0788" lon="-1.39845">
        <ele>39</ele>
        <time>2021-12-03T16:32:24Z</time>
      </trkpt>
      <trkpt lat="47.07902" lon="-1.39826">
        <ele>37</ele>
        <time>2021-12-03T16:32:58Z</time>
      </trkpt>
      <trkpt lat="47.07927" lon="-1.3982">
        <ele>35</ele>
        <time>2021-12-03T16:33:32Z</time>
      </trkpt>
      <trkpt lat="47.07941" lon="-1.3981">
        <ele>32</ele>
        <time>2021-12-03T16:33:53Z</time>
      </trkpt>
      <trkpt lat="47.07961" lon="-1.39775">
        <ele>25</ele>
        <time>2021-12-03T16:34:34Z</time>
      </trkpt>
      <trkpt lat="47.07957" lon="-1.39759">
        <ele>23</ele>
        <time>2021-12-03T16:34:50Z</time>
      </trkpt>
      <trkpt lat="47.07949" lon="-1.39754">
        <ele>23</ele>
        <time>2021-12-03T16:35:02Z</time>
      </trkpt>
      <trkpt lat="47.07947" lon="-1.39748">
        <ele>22</ele>
        <time>2021-12-03T16:35:08Z</time>
      </trkpt>
      <trkpt lat="47.07938" lon="-1.39676">
        <ele>23</ele>
        <time>2021-12-03T16:36:14Z</time>
      </trkpt>
      <trkpt lat="47.07953" lon="-1.39676">
        <ele>23</ele>
        <time>2021-12-03T16:36:34Z</time>
      </trkpt>
      <trkpt lat="47.07997" lon="-1.39691">
        <ele>23</ele>
        <time>2021-12-03T16:37:34Z</time>
      </trkpt>
      <trkpt lat="47.08006" lon="-1.39692">
        <ele>23</ele>
        <time>2021-12-03T16:37:46Z</time>
      </trkpt>
      <trkpt lat="47.08017" lon="-1.39681">
        <ele>25</ele>
        <time>2021-12-03T16:38:04Z</time>
      </trkpt>
      <trkpt lat="47.08032" lon="-1.39681">
        <ele>25</ele>
        <time>2021-12-03T16:38:24Z</time>
      </trkpt>
      <trkpt lat="47.08057" lon="-1.39668">
        <ele>28</ele>
        <time>2021-12-03T16:39:00Z</time>
      </trkpt>
      <trkpt lat="47.08067" lon="-1.3966">
        <ele>30</ele>
        <time>2021-12-03T16:39:15Z</time>
      </trkpt>
      <trkpt lat="47.08082" lon="-1.39653">
        <ele>31</ele>
        <time>2021-12-03T16:39:36Z</time>
      </trkpt>
      <trkpt lat="47.08094" lon="-1.39652">
        <ele>33</ele>
        <time>2021-12-03T16:39:52Z</time>
      </trkpt>
      <trkpt lat="47.081" lon="-1.39642">
        <ele>34</ele>
        <time>2021-12-03T16:40:04Z</time>
      </trkpt>
      <trkpt lat="47.08117" lon="-1.39634">
        <ele>36</ele>
        <time>2021-12-03T16:40:28Z</time>
      </trkpt>
      <trkpt lat="47.08142" lon="-1.3964">
        <ele>38</ele>
        <time>2021-12-03T16:41:02Z</time>
      </trkpt>
      <trkpt lat="47.08209" lon="-1.39662">
        <ele>40</ele>
        <time>2021-12-03T16:42:33Z</time>
      </trkpt>
      <trkpt lat="47.08277" lon="-1.39699">
        <ele>39</ele>
        <time>2021-12-03T16:44:10Z</time>
      </trkpt>
      <trkpt lat="47.08289" lon="-1.397">
        <ele>38</ele>
        <time>2021-12-03T16:44:26Z</time>
      </trkpt>
      <trkpt lat="47.08307" lon="-1.39697">
        <ele>38</ele>
        <time>2021-12-03T16:44:50Z</time>
      </trkpt>
      <trkpt lat="47.08326" lon="-1.39701">
        <ele>38</ele>
        <time>2021-12-03T16:45:16Z</time>
      </trkpt>
      <trkpt lat="47.08395" lon="-1.39707">
        <ele>38</ele>
        <time>2021-12-03T16:46:48Z</time>
      </trkpt>
      <trkpt lat="47.08403" lon="-1.39705">
        <ele>39</ele>
        <time>2021-12-03T16:46:59Z</time>
      </trkpt>
      <trkpt lat="47.08424" lon="-1.3969">
        <ele>39</ele>
        <time>2021-12-03T16:47:30Z</time>
      </trkpt>
      <trkpt lat="47.08436" lon="-1.39688">
        <ele>40</ele>
        <time>2021-12-03T16:47:46Z</time>
      </trkpt>
      <trkpt lat="47.08456" lon="-1.39693">
        <ele>40</ele>
        <time>2021-12-03T16:48:13Z</time>
      </trkpt>
      <trkpt lat="47.08493" lon="-1.39711">
        <ele>41</ele>
        <time>2021-12-03T16:49:05Z</time>
      </trkpt>
      <trkpt lat="47.08518" lon="-1.39727">
        <ele>41</ele>
        <time>2021-12-03T16:49:42Z</time>
      </trkpt>
      <trkpt lat="47.08528" lon="-1.3974">
        <ele>41</ele>
        <time>2021-12-03T16:49:59Z</time>
      </trkpt>
      <trkpt lat="47.08521" lon="-1.39756">
        <ele>41</ele>
        <time>2021-12-03T16:50:17Z</time>
      </trkpt>
      <trkpt lat="47.08517" lon="-1.39787">
        <ele>40</ele>
        <time>2021-12-03T16:50:45Z</time>
      </trkpt>
      <trkpt lat="47.0852" lon="-1.3987">
        <ele>38</ele>
        <time>2021-12-03T16:52:01Z</time>
      </trkpt>
      <trkpt lat="47.08518" lon="-1.39909">
        <ele>35</ele>
        <time>2021-12-03T16:52:36Z</time>
      </trkpt>
      <trkpt lat="47.08511" lon="-1.39918">
        <ele>35</ele>
        <time>2021-12-03T16:52:49Z</time>
      </trkpt>
      <trkpt lat="47.08488" lon="-1.39922">
        <ele>34</ele>
        <time>2021-12-03T16:53:20Z</time>
      </trkpt>
      <trkpt lat="47.08467" lon="-1.39918">
        <ele>33</ele>
        <time>2021-12-03T16:53:48Z</time>
      </trkpt>
      <trkpt lat="47.08466" lon="-1.39926">
        <ele>32</ele>
        <time>2021-12-03T16:53:55Z</time>
      </trkpt>
      <trkpt lat="47.08474" lon="-1.39943">
        <ele>30</ele>
        <time>2021-12-03T16:54:14Z</time>
      </trkpt>
      <trkpt lat="47.08497" lon="-1.39951">
        <ele>30</ele>
        <time>2021-12-03T16:54:46Z</time>
      </trkpt>
      <trkpt lat="47.08509" lon="-1.39959">
        <ele>29</ele>
        <time>2021-12-03T16:55:03Z</time>
      </trkpt>
      <trkpt lat="47.08568" lon="-1.39955">
        <ele>26</ele>
        <time>2021-12-03T16:56:22Z</time>
      </trkpt>
      <trkpt lat="47.08596" lon="-1.39966">
        <ele>24</ele>
        <time>2021-12-03T16:57:01Z</time>
      </trkpt>
      <trkpt lat="47.08625" lon="-1.39994">
        <ele>19</ele>
        <time>2021-12-03T16:57:47Z</time>
      </trkpt>
      <trkpt lat="47.08664" lon="-1.40013">
        <ele>18</ele>
        <time>2021-12-03T16:58:42Z</time>
      </trkpt>
      <trkpt lat="47.08674" lon="-1.40014">
        <ele>18</ele>
        <time>2021-12-03T16:58:55Z</time>
      </trkpt>
      <trkpt lat="47.08686" lon="-1.40011">
        <ele>19</ele>
        <time>2021-12-03T16:59:12Z</time>
      </trkpt>
      <trkpt lat="47.08725" lon="-1.40015">
        <ele>20</ele>
        <time>2021-12-03T17:00:04Z</time>
      </trkpt>
      <trkpt lat="47.08769" lon="-1.40002">
        <ele>22</ele>
        <time>2021-12-03T17:01:04Z</time>
      </trkpt>
      <trkpt lat="47.08783" lon="-1.40006">
        <ele>22</ele>
        <time>2021-12-03T17:01:23Z</time>
      </trkpt>
      <trkpt lat="47.08802" lon="-1.39999">
        <ele>23</ele>
        <time>2021-12-03T17:01:49Z</time>
      </trkpt>
      <trkpt lat="47.08823" lon="-1.39962">
        <ele>28</ele>
        <time>2021-12-03T17:02:33Z</time>
      </trkpt>
      <trkpt lat="47.08831" lon="-1.39936">
        <ele>31</ele>
        <time>2021-12-03T17:02:59Z</time>
      </trkpt>
      <trkpt lat="47.08839" lon="-1.39881">
        <ele>34</ele>
        <time>2021-12-03T17:03:50Z</time>
      </trkpt>
      <trkpt lat="47.08854" lon="-1.39883">
        <ele>34</ele>
        <time>2021-12-03T17:04:10Z</time>
      </trkpt>
      <trkpt lat="47.08868" lon="-1.39911">
        <ele>34</ele>
        <time>2021-12-03T17:04:41Z</time>
      </trkpt>
      <trkpt lat="47.08873" lon="-1.39939">
        <ele>32</ele>
        <time>2021-12-03T17:05:08Z</time>
      </trkpt>
      <trkpt lat="47.08923" lon="-1.39995">
        <ele>32</ele>
        <time>2021-12-03T17:06:32Z</time>
      </trkpt>
      <trkpt lat="47.08992" lon="-1.40031">
        <ele>32</ele>
        <time>2021-12-03T17:08:09Z</time>
      </trkpt>
      <trkpt lat="47.0906" lon="-1.40049">
        <ele>33</ele>
        <time>2021-12-03T17:09:41Z</time>
      </trkpt>
      <trkpt lat="47.09075" lon="-1.40047">
        <ele>34</ele>
        <time>2021-12-03T17:10:02Z</time>
      </trkpt>
      <trkpt lat="47.09158" lon="-1.40065">
        <ele>33</ele>
        <time>2021-12-03T17:11:54Z</time>
      </trkpt>
      <trkpt lat="47.09183" lon="-1.40095">
        <ele>33</ele>
        <time>2021-12-03T17:12:37Z</time>
      </trkpt>
      <trkpt lat="47.0919" lon="-1.40111">
        <ele>32</ele>
        <time>2021-12-03T17:12:54Z</time>
      </trkpt>
      <trkpt lat="47.09215" lon="-1.40144">
        <ele>31</ele>
        <time>2021-12-03T17:13:39Z</time>
      </trkpt>
      <trkpt lat="47.09239" lon="-1.40189">
        <ele>30</ele>
        <time>2021-12-03T17:14:31Z</time>
      </trkpt>
      <trkpt lat="47.09246" lon="-1.40197">
        <ele>30</ele>
        <time>2021-12-03T17:14:42Z</time>
      </trkpt>
      <trkpt lat="47.09318" lon="-1.40183">
        <ele>31</ele>
        <time>2021-12-03T17:16:19Z</time>
      </trkpt>
      <trkpt lat="47.0937" lon="-1.40081">
        <ele>33</ele>
        <time>2021-12-03T17:18:15Z</time>
      </trkpt>
      <trkpt lat="47.09404" lon="-1.40092">
        <ele>32</ele>
        <time>2021-12-03T17:19:02Z</time>
      </trkpt>
      <trkpt lat="47.09422" lon="-1.40014">
        <ele>35</ele>
        <time>2021-12-03T17:20:16Z</time>
      </trkpt>
      <trkpt lat="47.09463" lon="-1.40023">
        <ele>34</ele>
        <time>2021-12-03T17:21:12Z</time>
      </trkpt>
      <trkpt lat="47.09504" lon="-1.39962">
        <ele>33</ele>
        <time>2021-12-03T17:22:30Z</time>
      </trkpt>
      <trkpt lat="47.09521" lon="-1.39928">
        <ele>33</ele>
        <time>2021-12-03T17:23:08Z</time>
      </trkpt>
      <trkpt lat="47.09528" lon="-1.39922">
        <ele>33</ele>
        <time>2021-12-03T17:23:19Z</time>
      </trkpt>
      <trkpt lat="47.09542" lon="-1.39921">
        <ele>33</ele>
        <time>2021-12-03T17:23:38Z</time>
      </trkpt>
      <trkpt lat="47.09554" lon="-1.3993">
        <ele>33</ele>
        <time>2021-12-03T17:23:55Z</time>
      </trkpt>
      <trkpt lat="47.09573" lon="-1.39955">
        <ele>33</ele>
        <time>2021-12-03T17:24:30Z</time>
      </trkpt>
      <trkpt lat="47.09591" lon="-1.39965">
        <ele>34</ele>
        <time>2021-12-03T17:24:55Z</time>
      </trkpt>
      <trkpt lat="47.09528" lon="-1.40067">
        <ele>34</ele>
        <time>2021-12-03T17:27:00Z</time>
      </trkpt>
      <trkpt lat="47.0952" lon="-1.40059">
        <ele>33</ele>
        <time>2021-12-03T17:27:13Z</time>
      </trkpt>
      <trkpt lat="47.0951" lon="-1.40055">
        <ele>33</ele>
        <time>2021-12-03T17:27:27Z</time>
      </trkpt>
      <trkpt lat="47.09501" lon="-1.40066">
        <ele>33</ele>
        <time>2021-12-03T17:27:43Z</time>
      </trkpt>
      <trkpt lat="47.09449" lon="-1.40154">
        <ele>31</ele>
        <time>2021-12-03T17:29:29Z</time>
      </trkpt>
      <trkpt lat="47.09433" lon="-1.40161">
        <ele>30</ele>
        <time>2021-12-03T17:29:51Z</time>
      </trkpt>
      <trkpt lat="47.09413" lon="-1.40163">
        <ele>29</ele>
        <time>2021-12-03T17:30:18Z</time>
      </trkpt>
      <trkpt lat="47.09386" lon="-1.40185">
        <ele>30</ele>
        <time>2021-12-03T17:30:59Z</time>
      </trkpt>
      <trkpt lat="47.09373" lon="-1.40255">
        <ele>28</ele>
        <time>2021-12-03T17:32:05Z</time>
      </trkpt>
      <trkpt lat="47.09378" lon="-1.40296">
        <ele>24</ele>
        <time>2021-12-03T17:32:43Z</time>
      </trkpt>
      <trkpt lat="47.09376" lon="-1.40312">
        <ele>23</ele>
        <time>2021-12-03T17:32:57Z</time>
      </trkpt>
      <trkpt lat="47.09389" lon="-1.40358">
        <ele>19</ele>
        <time>2021-12-03T17:33:43Z</time>
      </trkpt>
      <trkpt lat="47.09423" lon="-1.4038">
        <ele>17</ele>
        <time>2021-12-03T17:34:32Z</time>
      </trkpt>
      <trkpt lat="47.09473" lon="-1.4038">
        <ele>20</ele>
        <time>2021-12-03T17:35:39Z</time>
      </trkpt>
      <trkpt lat="47.09484" lon="-1.40382">
        <ele>20</ele>
        <time>2021-12-03T17:35:54Z</time>
      </trkpt>
      <trkpt lat="47.09499" lon="-1.4039">
        <ele>19</ele>
        <time>2021-12-03T17:36:15Z</time>
      </trkpt>
      <trkpt lat="47.0951" lon="-1.40401">
        <ele>17</ele>
        <time>2021-12-03T17:36:33Z</time>
      </trkpt>
      <trkpt lat="47.09548" lon="-1.40422">
        <ele>16</ele>
        <time>2021-12-03T17:37:27Z</time>
      </trkpt>
      <trkpt lat="47.0964" lon="-1.40433">
        <ele>18</ele>
        <time>2021-12-03T17:39:30Z</time>
      </trkpt>
      <trkpt lat="47.09687" lon="-1.40429">
        <ele>21</ele>
        <time>2021-12-03T17:40:33Z</time>
      </trkpt>
      <trkpt lat="47.09752" lon="-1.40405">
        <ele>31</ele>
        <time>2021-12-03T17:42:02Z</time>
      </trkpt>
      <trkpt lat="47.09761" lon="-1.40413">
        <ele>31</ele>
        <time>2021-12-03T17:42:16Z</time>
      </trkpt>
      <trkpt lat="47.09766" lon="-1.40428">
        <ele>30</ele>
        <time>2021-12-03T17:42:32Z</time>
      </trkpt>
      <trkpt lat="47.09778" lon="-1.40432">
        <ele>32</ele>
        <time>2021-12-03T17:42:48Z</time>
      </trkpt>
      <trkpt lat="47.09796" lon="-1.40415">
        <ele>36</ele>
        <time>2021-12-03T17:43:17Z</time>
      </trkpt>
      <trkpt lat="47.09822" lon="-1.40517">
        <ele>34</ele>
        <time>2021-12-03T17:44:55Z</time>
      </trkpt>
      <trkpt lat="47.0983" lon="-1.40539">
        <ele>35</ele>
        <time>2021-12-03T17:45:18Z</time>
      </trkpt>
      <trkpt lat="47.09846" lon="-1.40556">
        <ele>37</ele>
        <time>2021-12-03T17:45:44Z</time>
      </trkpt>
      <trkpt lat="47.0986" lon="-1.40549">
        <ele>39</ele>
        <time>2021-12-03T17:46:04Z</time>
      </trkpt>
      <trkpt lat="47.09876" lon="-1.40529">
        <ele>43</ele>
        <time>2021-12-03T17:46:32Z</time>
      </trkpt>
      <trkpt lat="47.09882" lon="-1.4053">
        <ele>43</ele>
        <time>2021-12-03T17:46:40Z</time>
      </trkpt>
      <trkpt lat="47.09966" lon="-1.4045">
        <ele>53</ele>
        <time>2021-12-03T17:48:54Z</time>
      </trkpt>
      <trkpt lat="47.09967" lon="-1.40431">
        <ele>53</ele>
        <time>2021-12-03T17:49:11Z</time>
      </trkpt>
      <trkpt lat="47.09982" lon="-1.40406">
        <ele>54</ele>
        <time>2021-12-03T17:49:41Z</time>
      </trkpt>
      <trkpt lat="47.09996" lon="-1.40396">
        <ele>54</ele>
        <time>2021-12-03T17:50:02Z</time>
      </trkpt>
      <trkpt lat="47.1001" lon="-1.40397">
        <ele>55</ele>
        <time>2021-12-03T17:50:21Z</time>
      </trkpt>
      <trkpt lat="47.10051" lon="-1.40528">
        <ele>55</ele>
        <time>2021-12-03T17:52:32Z</time>
      </trkpt>
      <trkpt lat="47.10039" lon="-1.4054">
        <ele>54</ele>
        <time>2021-12-03T17:52:51Z</time>
      </trkpt>
      <trkpt lat="47.10035" lon="-1.40555">
        <ele>54</ele>
        <time>2021-12-03T17:53:06Z</time>
      </trkpt>
      <trkpt lat="47.10035" lon="-1.40566">
        <ele>54</ele>
        <time>2021-12-03T17:53:16Z</time>
      </trkpt>
      <trkpt lat="47.10047" lon="-1.40605">
        <ele>53</ele>
        <time>2021-12-03T17:53:55Z</time>
      </trkpt>
      <trkpt lat="47.1005" lon="-1.40606">
        <ele>53</ele>
        <time>2021-12-03T17:53:59Z</time>
      </trkpt>
      <trkpt lat="47.10126" lon="-1.40708">
        <ele>50</ele>
        <time>2021-12-03T17:56:16Z</time>
      </trkpt>
      <trkpt lat="47.10179" lon="-1.40802">
        <ele>49</ele>
        <time>2021-12-03T17:58:07Z</time>
      </trkpt>
      <trkpt lat="47.10182" lon="-1.40852">
        <ele>49</ele>
        <time>2021-12-03T17:58:53Z</time>
      </trkpt>
      <trkpt lat="47.102" lon="-1.40909">
        <ele>47</ele>
        <time>2021-12-03T17:59:50Z</time>
      </trkpt>
      <trkpt lat="47.10197" lon="-1.4092">
        <ele>47</ele>
        <time>2021-12-03T18:00:01Z</time>
      </trkpt>
      <trkpt lat="47.10114" lon="-1.40998">
        <ele>42</ele>
        <time>2021-12-03T18:02:12Z</time>
      </trkpt>
      <trkpt lat="47.10105" lon="-1.41018">
        <ele>41</ele>
        <time>2021-12-03T18:02:34Z</time>
      </trkpt>
      <trkpt lat="47.10089" lon="-1.41033">
        <ele>39</ele>
        <time>2021-12-03T18:02:59Z</time>
      </trkpt>
      <trkpt lat="47.10076" lon="-1.41016">
        <ele>39</ele>
        <time>2021-12-03T18:03:22Z</time>
      </trkpt>
      <trkpt lat="47.10047" lon="-1.41057">
        <ele>33</ele>
        <time>2021-12-03T18:04:16Z</time>
      </trkpt>
      <trkpt lat="47.09997" lon="-1.41099">
        <ele>23</ele>
        <time>2021-12-03T18:05:33Z</time>
      </trkpt>
      <trkpt lat="47.09978" lon="-1.41131">
        <ele>19</ele>
        <time>2021-12-03T18:06:12Z</time>
      </trkpt>
      <trkpt lat="47.09983" lon="-1.41148">
        <ele>19</ele>
        <time>2021-12-03T18:06:28Z</time>
      </trkpt>
      <trkpt lat="47.10035" lon="-1.41219">
        <ele>18</ele>
        <time>2021-12-03T18:08:03Z</time>
      </trkpt>
      <trkpt lat="47.10075" lon="-1.41284">
        <ele>17</ele>
        <time>2021-12-03T18:09:23Z</time>
      </trkpt>
      <trkpt lat="47.10086" lon="-1.41311">
        <ele>15</ele>
        <time>2021-12-03T18:09:51Z</time>
      </trkpt>
      <trkpt lat="47.10098" lon="-1.41329">
        <ele>16</ele>
        <time>2021-12-03T18:10:14Z</time>
      </trkpt>
      <trkpt lat="47.10102" lon="-1.41361">
        <ele>16</ele>
        <time>2021-12-03T18:10:44Z</time>
      </trkpt>
      <trkpt lat="47.10115" lon="-1.41379">
        <ele>16</ele>
        <time>2021-12-03T18:11:08Z</time>
      </trkpt>
      <trkpt lat="47.10116" lon="-1.41394">
        <ele>16</ele>
        <time>2021-12-03T18:11:21Z</time>
      </trkpt>
      <trkpt lat="47.10131" lon="-1.41417">
        <ele>15</ele>
        <time>2021-12-03T18:11:50Z</time>
      </trkpt>
      <trkpt lat="47.10146" lon="-1.41469">
        <ele>13</ele>
        <time>2021-12-03T18:12:42Z</time>
      </trkpt>
      <trkpt lat="47.10191" lon="-1.41523">
        <ele>12</ele>
        <time>2021-12-03T18:13:59Z</time>
      </trkpt>
      <trkpt lat="47.10249" lon="-1.41575">
        <ele>11</ele>
        <time>2021-12-03T18:15:30Z</time>
      </trkpt>
      <trkpt lat="47.10316" lon="-1.41654">
        <ele>12</ele>
        <time>2021-12-03T18:17:24Z</time>
      </trkpt>
      <trkpt lat="47.10368" lon="-1.41694">
        <ele>13</ele>
        <time>2021-12-03T18:18:43Z</time>
      </trkpt>
      <trkpt lat="47.10398" lon="-1.41703">
        <ele>15</ele>
        <time>2021-12-03T18:19:24Z</time>
      </trkpt>
      <trkpt lat="47.10418" lon="-1.41704">
        <ele>16</ele>
        <time>2021-12-03T18:19:50Z</time>
      </trkpt>
      <trkpt lat="47.10446" lon="-1.41713">
        <ele>15</ele>
        <time>2021-12-03T18:20:29Z</time>
      </trkpt>
      <trkpt lat="47.1049" lon="-1.41704">
        <ele>14</ele>
        <time>2021-12-03T18:21:28Z</time>
      </trkpt>
      <trkpt lat="47.10555" lon="-1.41662">
        <ele>12</ele>
        <time>2021-12-03T18:23:03Z</time>
      </trkpt>
      <trkpt lat="47.10607" lon="-1.41611">
        <ele>14</ele>
        <time>2021-12-03T18:24:26Z</time>
      </trkpt>
      <trkpt lat="47.10659" lon="-1.4155">
        <ele>15</ele>
        <time>2021-12-03T18:25:55Z</time>
      </trkpt>
      <trkpt lat="47.10686" lon="-1.41524">
        <ele>15</ele>
        <time>2021-12-03T18:26:38Z</time>
      </trkpt>
      <trkpt lat="47.10726" lon="-1.4148">
        <ele>15</ele>
        <time>2021-12-03T18:27:45Z</time>
      </trkpt>
      <trkpt lat="47.1073" lon="-1.41454">
        <ele>16</ele>
        <time>2021-12-03T18:28:09Z</time>
      </trkpt>
      <trkpt lat="47.1073" lon="-1.41435">
        <ele>17</ele>
        <time>2021-12-03T18:28:26Z</time>
      </trkpt>
      <trkpt lat="47.10716" lon="-1.414">
        <ele>20</ele>
        <time>2021-12-03T18:29:03Z</time>
      </trkpt>
      <trkpt lat="47.10696" lon="-1.41365">
        <ele>23</ele>
        <time>2021-12-03T18:29:44Z</time>
      </trkpt>
      <trkpt lat="47.1065" lon="-1.41413">
        <ele>28</ele>
        <time>2021-12-03T18:31:00Z</time>
      </trkpt>
      <trkpt lat="47.10644" lon="-1.41411">
        <ele>29</ele>
        <time>2021-12-03T18:31:08Z</time>
      </trkpt>
      <trkpt lat="47.10638" lon="-1.41405">
        <ele>29</ele>
        <time>2021-12-03T18:31:18Z</time>
      </trkpt>
      <trkpt lat="47.10625" lon="-1.41379">
        <ele>29</ele>
        <time>2021-12-03T18:31:47Z</time>
      </trkpt>
      <trkpt lat="47.1058" lon="-1.41322">
        <ele>32</ele>
        <time>2021-12-03T18:33:06Z</time>
      </trkpt>
      <trkpt lat="47.10572" lon="-1.41318">
        <ele>32</ele>
        <time>2021-12-03T18:33:17Z</time>
      </trkpt>
      <trkpt lat="47.10565" lon="-1.4132">
        <ele>33</ele>
        <time>2021-12-03T18:33:27Z</time>
      </trkpt>
      <trkpt lat="47.10563" lon="-1.41309">
        <ele>33</ele>
        <time>2021-12-03T18:33:37Z</time>
      </trkpt>
      <trkpt lat="47.10563" lon="-1.41262">
        <ele>33</ele>
        <time>2021-12-03T18:34:20Z</time>
      </trkpt>
      <trkpt lat="47.10535" lon="-1.41244">
        <ele>35</ele>
        <time>2021-12-03T18:35:01Z</time>
      </trkpt>
      <trkpt lat="47.10529" lon="-1.41235">
        <ele>36</ele>
        <time>2021-12-03T18:35:12Z</time>
      </trkpt>
      <trkpt lat="47.10498" lon="-1.41157">
        <ele>40</ele>
        <time>2021-12-03T18:36:34Z</time>
      </trkpt>
      <trkpt lat="47.10343" lon="-1.40718">
        <ele>48</ele>
        <time>2021-12-03T18:44:03Z</time>
      </trkpt>
      <trkpt lat="47.10331" lon="-1.40629">
        <ele>49</ele>
        <time>2021-12-03T18:45:26Z</time>
      </trkpt>
      <trkpt lat="47.10323" lon="-1.40589">
        <ele>49</ele>
        <time>2021-12-03T18:46:04Z</time>
      </trkpt>
      <trkpt lat="47.10309" lon="-1.40539">
        <ele>50</ele>
        <time>2021-12-03T18:46:53Z</time>
      </trkpt>
      <trkpt lat="47.10288" lon="-1.40426">
        <ele>52</ele>
        <time>2021-12-03T18:48:39Z</time>
      </trkpt>
      <trkpt lat="47.1029" lon="-1.40408">
        <ele>52</ele>
        <time>2021-12-03T18:48:56Z</time>
      </trkpt>
      <trkpt lat="47.10297" lon="-1.40393">
        <ele>51</ele>
        <time>2021-12-03T18:49:12Z</time>
      </trkpt>
      <trkpt lat="47.10309" lon="-1.40385">
        <ele>51</ele>
        <time>2021-12-03T18:49:30Z</time>
      </trkpt>
      <trkpt lat="47.10349" lon="-1.40375">
        <ele>49</ele>
        <time>2021-12-03T18:50:24Z</time>
      </trkpt>
      <trkpt lat="47.10372" lon="-1.40362">
        <ele>48</ele>
        <time>2021-12-03T18:50:57Z</time>
      </trkpt>
      <trkpt lat="47.10394" lon="-1.40344">
        <ele>48</ele>
        <time>2021-12-03T18:51:31Z</time>
      </trkpt>
      <trkpt lat="47.10493" lon="-1.40222">
        <ele>44</ele>
        <time>2021-12-03T18:54:23Z</time>
      </trkpt>
      <trkpt lat="47.1049" lon="-1.40209">
        <ele>45</ele>
        <time>2021-12-03T18:54:35Z</time>
      </trkpt>
      <trkpt lat="47.10508" lon="-1.40185">
        <ele>44</ele>
        <time>2021-12-03T18:55:08Z</time>
      </trkpt>
      <trkpt lat="47.10525" lon="-1.40168">
        <ele>44</ele>
        <time>2021-12-03T18:55:35Z</time>
      </trkpt>
      <trkpt lat="47.10542" lon="-1.40159">
        <ele>44</ele>
        <time>2021-12-03T18:55:59Z</time>
      </trkpt>
      <trkpt lat="47.10745" lon="-1.40183">
        <ele>48</ele>
        <time>2021-12-03T19:00:31Z</time>
      </trkpt>
      <trkpt lat="47.10799" lon="-1.40194">
        <ele>48</ele>
        <time>2021-12-03T19:01:44Z</time>
      </trkpt>
      <trkpt lat="47.10829" lon="-1.4021">
        <ele>48</ele>
        <time>2021-12-03T19:02:27Z</time>
      </trkpt>
      <trkpt lat="47.10879" lon="-1.40247">
        <ele>50</ele>
        <time>2021-12-03T19:03:41Z</time>
      </trkpt>
      <trkpt lat="47.10947" lon="-1.40281">
        <ele>50</ele>
        <time>2021-12-03T19:05:17Z</time>
      </trkpt>
      <trkpt lat="47.11108" lon="-1.4035">
        <ele>51</ele>
        <time>2021-12-03T19:09:01Z</time>
      </trkpt>
      <trkpt lat="47.11142" lon="-1.40358">
        <ele>52</ele>
        <time>2021-12-03T19:09:47Z</time>
      </trkpt>
      <trkpt lat="47.11161" lon="-1.40355">
        <ele>52</ele>
        <time>2021-12-03T19:10:12Z</time>
      </trkpt>
      <trkpt lat="47.11268" lon="-1.40294">
        <ele>53</ele>
        <time>2021-12-03T19:12:46Z</time>
      </trkpt>
      <trkpt lat="47.11292" lon="-1.40286">
        <ele>54</ele>
        <time>2021-12-03T19:13:18Z</time>
      </trkpt>
      <trkpt lat="47.11431" lon="-1.4027">
        <ele>52</ele>
        <time>2021-12-03T19:16:24Z</time>
      </trkpt>
      <trkpt lat="47.11548" lon="-1.40219">
        <ele>52</ele>
        <time>2021-12-03T19:19:07Z</time>
      </trkpt>
      <trkpt lat="47.1159" lon="-1.40394">
        <ele>50</ele>
        <time>2021-12-03T19:21:56Z</time>
      </trkpt>
      <trkpt lat="47.11601" lon="-1.40413">
        <ele>50</ele>
        <time>2021-12-03T19:22:18Z</time>
      </trkpt>
      <trkpt lat="47.11619" lon="-1.40424">
        <ele>50</ele>
        <time>2021-12-03T19:22:45Z</time>
      </trkpt>
      <trkpt lat="47.1164" lon="-1.40433">
        <ele>51</ele>
        <time>2021-12-03T19:23:14Z</time>
      </trkpt>
      <trkpt lat="47.11651" lon="-1.40449">
        <ele>51</ele>
        <time>2021-12-03T19:23:34Z</time>
      </trkpt>
      <trkpt lat="47.1167" lon="-1.40513">
        <ele>51</ele>
        <time>2021-12-03T19:24:38Z</time>
      </trkpt>
      <trkpt lat="47.11675" lon="-1.4052">
        <ele>51</ele>
        <time>2021-12-03T19:24:47Z</time>
      </trkpt>
      <trkpt lat="47.11672" lon="-1.40532">
        <ele>51</ele>
        <time>2021-12-03T19:24:59Z</time>
      </trkpt>
      <trkpt lat="47.11673" lon="-1.4057">
        <ele>50</ele>
        <time>2021-12-03T19:25:33Z</time>
      </trkpt>
      <trkpt lat="47.1168" lon="-1.40636">
        <ele>49</ele>
        <time>2021-12-03T19:26:34Z</time>
      </trkpt>
      <trkpt lat="47.11674" lon="-1.40668">
        <ele>49</ele>
        <time>2021-12-03T19:27:04Z</time>
      </trkpt>
      <trkpt lat="47.11598" lon="-1.40726">
        <ele>47</ele>
        <time>2021-12-03T19:28:58Z</time>
      </trkpt>
      <trkpt lat="47.11588" lon="-1.4074">
        <ele>46</ele>
        <time>2021-12-03T19:29:17Z</time>
      </trkpt>
      <trkpt lat="47.11588" lon="-1.40754">
        <ele>46</ele>
        <time>2021-12-03T19:29:29Z</time>
      </trkpt>
      <trkpt lat="47.11602" lon="-1.40792">
        <ele>47</ele>
        <time>2021-12-03T19:30:09Z</time>
      </trkpt>
      <trkpt lat="47.11627" lon="-1.40899">
        <ele>49</ele>
        <time>2021-12-03T19:31:51Z</time>
      </trkpt>
      <trkpt lat="47.11637" lon="-1.40967">
        <ele>49</ele>
        <time>2021-12-03T19:32:55Z</time>
      </trkpt>
      <trkpt lat="47.11462" lon="-1.41067">
        <ele>43</ele>
        <time>2021-12-03T19:37:05Z</time>
      </trkpt>
      <trkpt lat="47.11472" lon="-1.41121">
        <ele>42</ele>
        <time>2021-12-03T19:37:56Z</time>
      </trkpt>
      <trkpt lat="47.11398" lon="-1.41168">
        <ele>36</ele>
        <time>2021-12-03T19:39:43Z</time>
      </trkpt>
      <trkpt lat="47.11384" lon="-1.41182">
        <ele>33</ele>
        <time>2021-12-03T19:40:06Z</time>
      </trkpt>
      <trkpt lat="47.11398" lon="-1.41245">
        <ele>29</ele>
        <time>2021-12-03T19:41:06Z</time>
      </trkpt>
      <trkpt lat="47.11425" lon="-1.41289">
        <ele>27</ele>
        <time>2021-12-03T19:42:00Z</time>
      </trkpt>
      <trkpt lat="47.11474" lon="-1.41353">
        <ele>25</ele>
        <time>2021-12-03T19:43:28Z</time>
      </trkpt>
      <trkpt lat="47.11515" lon="-1.41469">
        <ele>17</ele>
        <time>2021-12-03T19:45:26Z</time>
      </trkpt>
      <trkpt lat="47.11538" lon="-1.41511">
        <ele>17</ele>
        <time>2021-12-03T19:46:15Z</time>
      </trkpt>
      <trkpt lat="47.1164" lon="-1.41631">
        <ele>17</ele>
        <time>2021-12-03T19:49:10Z</time>
      </trkpt>
      <trkpt lat="47.11706" lon="-1.41683">
        <ele>15</ele>
        <time>2021-12-03T19:50:50Z</time>
      </trkpt>
      <trkpt lat="47.11778" lon="-1.41682">
        <ele>16</ele>
        <time>2021-12-03T19:52:26Z</time>
      </trkpt>
      <trkpt lat="47.11833" lon="-1.41704">
        <ele>15</ele>
        <time>2021-12-03T19:53:42Z</time>
      </trkpt>
      <trkpt lat="47.11915" lon="-1.41715">
        <ele>17</ele>
        <time>2021-12-03T19:55:32Z</time>
      </trkpt>
      <trkpt lat="47.11976" lon="-1.41718">
        <ele>17</ele>
        <time>2021-12-03T19:56:53Z</time>
      </trkpt>
      <trkpt lat="47.12013" lon="-1.4171">
        <ele>19</ele>
        <time>2021-12-03T19:57:43Z</time>
      </trkpt>
      <trkpt lat="47.12054" lon="-1.41715">
        <ele>22</ele>
        <time>2021-12-03T19:58:38Z</time>
      </trkpt>
      <trkpt lat="47.12107" lon="-1.41756">
        <ele>19</ele>
        <time>2021-12-03T19:59:58Z</time>
      </trkpt>
      <trkpt lat="47.12135" lon="-1.41772">
        <ele>20</ele>
        <time>2021-12-03T20:00:38Z</time>
      </trkpt>
      <trkpt lat="47.12193" lon="-1.41824">
        <ele>13</ele>
        <time>2021-12-03T20:02:08Z</time>
      </trkpt>
      <trkpt lat="47.12228" lon="-1.41837">
        <ele>13</ele>
        <time>2021-12-03T20:02:57Z</time>
      </trkpt>
      <trkpt lat="47.12241" lon="-1.4186">
        <ele>16</ele>
        <time>2021-12-03T20:03:24Z</time>
      </trkpt>
      <trkpt lat="47.12302" lon="-1.41843">
        <ele>16</ele>
        <time>2021-12-03T20:04:47Z</time>
      </trkpt>
      <trkpt lat="47.12342" lon="-1.41814">
        <ele>15</ele>
        <time>2021-12-03T20:05:46Z</time>
      </trkpt>
      <trkpt lat="47.12365" lon="-1.41782">
        <ele>16</ele>
        <time>2021-12-03T20:06:28Z</time>
      </trkpt>
      <trkpt lat="47.12379" lon="-1.41741">
        <ele>13</ele>
        <time>2021-12-03T20:07:10Z</time>
      </trkpt>
      <trkpt lat="47.12381" lon="-1.41699">
        <ele>12</ele>
        <time>2021-12-03T20:07:48Z</time>
      </trkpt>
      <trkpt lat="47.12412" lon="-1.41626">
        <ele>11</ele>
        <time>2021-12-03T20:09:06Z</time>
      </trkpt>
      <trkpt lat="47.12451" lon="-1.41586">
        <ele>11</ele>
        <time>2021-12-03T20:10:10Z</time>
      </trkpt>
      <trkpt lat="47.12493" lon="-1.41473">
        <ele>13</ele>
        <time>2021-12-03T20:12:07Z</time>
      </trkpt>
      <trkpt lat="47.12523" lon="-1.41427">
        <ele>14</ele>
        <time>2021-12-03T20:13:05Z</time>
      </trkpt>
      <trkpt lat="47.12606" lon="-1.41571">
        <ele>15</ele>
        <time>2021-12-03T20:15:56Z</time>
      </trkpt>
      <trkpt lat="47.12595" lon="-1.41587">
        <ele>15</ele>
        <time>2021-12-03T20:16:17Z</time>
      </trkpt>
      <trkpt lat="47.12595" lon="-1.41596">
        <ele>17</ele>
        <time>2021-12-03T20:16:25Z</time>
      </trkpt>
      <trkpt lat="47.1259" lon="-1.41612">
        <ele>19</ele>
        <time>2021-12-03T20:16:41Z</time>
      </trkpt>
      <trkpt lat="47.12581" lon="-1.4162">
        <ele>20</ele>
        <time>2021-12-03T20:16:55Z</time>
      </trkpt>
      <trkpt lat="47.12576" lon="-1.41628">
        <ele>21</ele>
        <time>2021-12-03T20:17:05Z</time>
      </trkpt>
      <trkpt lat="47.12577" lon="-1.41637">
        <ele>22</ele>
        <time>2021-12-03T20:17:13Z</time>
      </trkpt>
      <trkpt lat="47.12555" lon="-1.41679">
        <ele>26</ele>
        <time>2021-12-03T20:18:01Z</time>
      </trkpt>
      <trkpt lat="47.12552" lon="-1.41757">
        <ele>37</ele>
        <time>2021-12-03T20:19:12Z</time>
      </trkpt>
      <trkpt lat="47.12535" lon="-1.41827">
        <ele>45</ele>
        <time>2021-12-03T20:20:20Z</time>
      </trkpt>
      <trkpt lat="47.12522" lon="-1.41847">
        <ele>46</ele>
        <time>2021-12-03T20:20:45Z</time>
      </trkpt>
      <trkpt lat="47.12516" lon="-1.4187">
        <ele>47</ele>
        <time>2021-12-03T20:21:07Z</time>
      </trkpt>
      <trkpt lat="47.12484" lon="-1.41892">
        <ele>48</ele>
        <time>2021-12-03T20:21:54Z</time>
      </trkpt>
      <trkpt lat="47.12466" lon="-1.4191">
        <ele>48</ele>
        <time>2021-12-03T20:22:23Z</time>
      </trkpt>
      <trkpt lat="47.1246" lon="-1.41899">
        <ele>47</ele>
        <time>2021-12-03T20:22:36Z</time>
      </trkpt>
      <trkpt lat="47.12447" lon="-1.41884">
        <ele>44</ele>
        <time>2021-12-03T20:22:58Z</time>
      </trkpt>
      <trkpt lat="47.12418" lon="-1.41822">
        <ele>31</ele>
        <time>2021-12-03T20:24:06Z</time>
      </trkpt>
      <trkpt lat="47.12445" lon="-1.4188">
        <ele>44</ele>
        <time>2021-12-03T20:25:10Z</time>
      </trkpt>
      <trkpt lat="47.12462" lon="-1.41903">
        <ele>48</ele>
        <time>2021-12-03T20:25:41Z</time>
      </trkpt>
      <trkpt lat="47.12464" lon="-1.41911">
        <ele>49</ele>
        <time>2021-12-03T20:25:49Z</time>
      </trkpt>
      <trkpt lat="47.12449" lon="-1.41926">
        <ele>49</ele>
        <time>2021-12-03T20:26:13Z</time>
      </trkpt>
      <trkpt lat="47.12422" lon="-1.41962">
        <ele>51</ele>
        <time>2021-12-03T20:27:02Z</time>
      </trkpt>
      <trkpt lat="47.12407" lon="-1.41945">
        <ele>48</ele>
        <time>2021-12-03T20:27:27Z</time>
      </trkpt>
      <trkpt lat="47.12382" lon="-1.41975">
        <ele>49</ele>
        <time>2021-12-03T20:28:10Z</time>
      </trkpt>
      <trkpt lat="47.12352" lon="-1.42002">
        <ele>51</ele>
        <time>2021-12-03T20:28:57Z</time>
      </trkpt>
      <trkpt lat="47.1233" lon="-1.42016">
        <ele>51</ele>
        <time>2021-12-03T20:29:29Z</time>
      </trkpt>
      <trkpt lat="47.12325" lon="-1.42024">
        <ele>51</ele>
        <time>2021-12-03T20:29:39Z</time>
      </trkpt>
      <trkpt lat="47.12324" lon="-1.42032">
        <ele>52</ele>
        <time>2021-12-03T20:29:46Z</time>
      </trkpt>
      <trkpt lat="47.12313" lon="-1.4203">
        <ele>51</ele>
        <time>2021-12-03T20:30:01Z</time>
      </trkpt>
      <trkpt lat="47.12307" lon="-1.42023">
        <ele>51</ele>
        <time>2021-12-03T20:30:11Z</time>
      </trkpt>
      <trkpt lat="47.12281" lon="-1.42013">
        <ele>49</ele>
        <time>2021-12-03T20:30:47Z</time>
      </trkpt>
      <trkpt lat="47.12246" lon="-1.42021">
        <ele>49</ele>
        <time>2021-12-03T20:31:34Z</time>
      </trkpt>
      <trkpt lat="47.1222" lon="-1.42021">
        <ele>48</ele>
        <time>2021-12-03T20:32:09Z</time>
      </trkpt>
      <trkpt lat="47.12183" lon="-1.42011">
        <ele>46</ele>
        <time>2021-12-03T20:32:59Z</time>
      </trkpt>
      <trkpt lat="47.12133" lon="-1.42018">
        <ele>47</ele>
        <time>2021-12-03T20:34:06Z</time>
      </trkpt>
      <trkpt lat="47.12118" lon="-1.42013">
        <ele>46</ele>
        <time>2021-12-03T20:34:27Z</time>
      </trkpt>
      <trkpt lat="47.12112" lon="-1.42007">
        <ele>46</ele>
        <time>2021-12-03T20:34:36Z</time>
      </trkpt>
      <trkpt lat="47.11994" lon="-1.42038">
        <ele>46</ele>
        <time>2021-12-03T20:37:16Z</time>
      </trkpt>
      <trkpt lat="47.11963" lon="-1.42051">
        <ele>46</ele>
        <time>2021-12-03T20:37:59Z</time>
      </trkpt>
      <trkpt lat="47.11948" lon="-1.42062">
        <ele>46</ele>
        <time>2021-12-03T20:38:22Z</time>
      </trkpt>
      <trkpt lat="47.11914" lon="-1.42073">
        <ele>46</ele>
        <time>2021-12-03T20:39:08Z</time>
      </trkpt>
      <trkpt lat="47.11862" lon="-1.42102">
        <ele>46</ele>
        <time>2021-12-03T20:40:23Z</time>
      </trkpt>
      <trkpt lat="47.11696" lon="-1.42217">
        <ele>38</ele>
        <time>2021-12-03T20:44:27Z</time>
      </trkpt>
      <trkpt lat="47.11701" lon="-1.42242">
        <ele>40</ele>
        <time>2021-12-03T20:44:51Z</time>
      </trkpt>
      <trkpt lat="47.11722" lon="-1.42263">
        <ele>42</ele>
        <time>2021-12-03T20:45:25Z</time>
      </trkpt>
      <trkpt lat="47.11731" lon="-1.42276">
        <ele>42</ele>
        <time>2021-12-03T20:45:42Z</time>
      </trkpt>
      <trkpt lat="47.11749" lon="-1.42321">
        <ele>43</ele>
        <time>2021-12-03T20:46:29Z</time>
      </trkpt>
      <trkpt lat="47.1176" lon="-1.42405">
        <ele>45</ele>
        <time>2021-12-03T20:47:47Z</time>
      </trkpt>
      <trkpt lat="47.11706" lon="-1.42438">
        <ele>44</ele>
        <time>2021-12-03T20:49:05Z</time>
      </trkpt>
      <trkpt lat="47.11639" lon="-1.42494">
        <ele>40</ele>
        <time>2021-12-03T20:50:48Z</time>
      </trkpt>
      <trkpt lat="47.11639" lon="-1.42532">
        <ele>40</ele>
        <time>2021-12-03T20:51:22Z</time>
      </trkpt>
      <trkpt lat="47.11656" lon="-1.42624">
        <ele>40</ele>
        <time>2021-12-03T20:52:49Z</time>
      </trkpt>
      <trkpt lat="47.1166" lon="-1.4269">
        <ele>38</ele>
        <time>2021-12-03T20:53:49Z</time>
      </trkpt>
      <trkpt lat="47.11659" lon="-1.42716">
        <ele>37</ele>
        <time>2021-12-03T20:54:13Z</time>
      </trkpt>
      <trkpt lat="47.11629" lon="-1.42722">
        <ele>36</ele>
        <time>2021-12-03T20:54:53Z</time>
      </trkpt>
      <trkpt lat="47.11599" lon="-1.42658">
        <ele>37</ele>
        <time>2021-12-03T20:56:04Z</time>
      </trkpt>
      <trkpt lat="47.11553" lon="-1.42586">
        <ele>36</ele>
        <time>2021-12-03T20:57:33Z</time>
      </trkpt>
      <trkpt lat="47.11464" lon="-1.42461">
        <ele>33</ele>
        <time>2021-12-03T21:00:18Z</time>
      </trkpt>
      <trkpt lat="47.11406" lon="-1.42503">
        <ele>34</ele>
        <time>2021-12-03T21:01:44Z</time>
      </trkpt>
      <trkpt lat="47.11345" lon="-1.4256">
        <ele>35</ele>
        <time>2021-12-03T21:03:20Z</time>
      </trkpt>
      <trkpt lat="47.11348" lon="-1.42567">
        <ele>35</ele>
        <time>2021-12-03T21:03:28Z</time>
      </trkpt>
      <trkpt lat="47.11302" lon="-1.42586">
        <ele>35</ele>
        <time>2021-12-03T21:04:32Z</time>
      </trkpt>
      <trkpt lat="47.11114" lon="-1.42652">
        <ele>44</ele>
        <time>2021-12-03T21:08:50Z</time>
      </trkpt>
      <trkpt lat="47.11091" lon="-1.42656">
        <ele>45</ele>
        <time>2021-12-03T21:09:21Z</time>
      </trkpt>
      <trkpt lat="47.10983" lon="-1.42714">
        <ele>47</ele>
        <time>2021-12-03T21:11:54Z</time>
      </trkpt>
      <trkpt lat="47.10911" lon="-1.42737">
        <ele>47</ele>
        <time>2021-12-03T21:13:32Z</time>
      </trkpt>
      <trkpt lat="47.10759" lon="-1.42773">
        <ele>42</ele>
        <time>2021-12-03T21:16:58Z</time>
      </trkpt>
      <trkpt lat="47.10753" lon="-1.42937">
        <ele>39</ele>
        <time>2021-12-03T21:19:27Z</time>
      </trkpt>
      <trkpt lat="47.10746" lon="-1.43008">
        <ele>38</ele>
        <time>2021-12-03T21:20:32Z</time>
      </trkpt>
      <trkpt lat="47.10748" lon="-1.43035">
        <ele>38</ele>
        <time>2021-12-03T21:20:57Z</time>
      </trkpt>
      <trkpt lat="47.1076" lon="-1.43114">
        <ele>38</ele>
        <time>2021-12-03T21:22:10Z</time>
      </trkpt>
      <trkpt lat="47.10758" lon="-1.43168">
        <ele>37</ele>
        <time>2021-12-03T21:22:59Z</time>
      </trkpt>
      <trkpt lat="47.10739" lon="-1.43201">
        <ele>36</ele>
        <time>2021-12-03T21:23:39Z</time>
      </trkpt>
      <trkpt lat="47.1071" lon="-1.43216">
        <ele>35</ele>
        <time>2021-12-03T21:24:20Z</time>
      </trkpt>
      <trkpt lat="47.10599" lon="-1.43218">
        <ele>36</ele>
        <time>2021-12-03T21:26:48Z</time>
      </trkpt>
      <trkpt lat="47.10553" lon="-1.43231">
        <ele>37</ele>
        <time>2021-12-03T21:27:50Z</time>
      </trkpt>
      <trkpt lat="47.10551" lon="-1.43154">
        <ele>37</ele>
        <time>2021-12-03T21:29:00Z</time>
      </trkpt>
      <trkpt lat="47.10556" lon="-1.43051">
        <ele>37</ele>
        <time>2021-12-03T21:30:34Z</time>
      </trkpt>
      <trkpt lat="47.10544" lon="-1.42958">
        <ele>37</ele>
        <time>2021-12-03T21:32:00Z</time>
      </trkpt>
      <trkpt lat="47.10537" lon="-1.42935">
        <ele>36</ele>
        <time>2021-12-03T21:32:23Z</time>
      </trkpt>
      <trkpt lat="47.10529" lon="-1.42885">
        <ele>36</ele>
        <time>2021-12-03T21:33:10Z</time>
      </trkpt>
      <trkpt lat="47.10528" lon="-1.42849">
        <ele>37</ele>
        <time>2021-12-03T21:33:42Z</time>
      </trkpt>
      <trkpt lat="47.1053" lon="-1.42831">
        <ele>37</ele>
        <time>2021-12-03T21:33:59Z</time>
      </trkpt>
      <trkpt lat="47.10538" lon="-1.42831">
        <ele>37</ele>
        <time>2021-12-03T21:34:10Z</time>
      </trkpt>
      <trkpt lat="47.10546" lon="-1.42774">
        <ele>38</ele>
        <time>2021-12-03T21:35:02Z</time>
      </trkpt>
      <trkpt lat="47.10521" lon="-1.42659">
        <ele>38</ele>
        <time>2021-12-03T21:36:52Z</time>
      </trkpt>
      <trkpt lat="47.10511" lon="-1.4249">
        <ele>41</ele>
        <time>2021-12-03T21:39:26Z</time>
      </trkpt>
      <trkpt lat="47.10495" lon="-1.42388">
        <ele>42</ele>
        <time>2021-12-03T21:41:01Z</time>
      </trkpt>
      <trkpt lat="47.10494" lon="-1.42193">
        <ele>41</ele>
        <time>2021-12-03T21:43:58Z</time>
      </trkpt>
      <trkpt lat="47.10488" lon="-1.42167">
        <ele>41</ele>
        <time>2021-12-03T21:44:23Z</time>
      </trkpt>
      <trkpt lat="47.1049" lon="-1.42157">
        <ele>41</ele>
        <time>2021-12-03T21:44:33Z</time>
      </trkpt>
      <trkpt lat="47.10483" lon="-1.42065">
        <ele>40</ele>
        <time>2021-12-03T21:45:57Z</time>
      </trkpt>
      <trkpt lat="47.10487" lon="-1.42048">
        <ele>40</ele>
        <time>2021-12-03T21:46:13Z</time>
      </trkpt>
      <trkpt lat="47.10485" lon="-1.42044">
        <ele>40</ele>
        <time>2021-12-03T21:46:18Z</time>
      </trkpt>
      <trkpt lat="47.10478" lon="-1.42045">
        <ele>40</ele>
        <time>2021-12-03T21:46:27Z</time>
      </trkpt>
      <trkpt lat="47.10467" lon="-1.42039">
        <ele>40</ele>
        <time>2021-12-03T21:46:43Z</time>
      </trkpt>
      <trkpt lat="47.10454" lon="-1.4202">
        <ele>39</ele>
        <time>2021-12-03T21:47:07Z</time>
      </trkpt>
      <trkpt lat="47.10434" lon="-1.41916">
        <ele>37</ele>
        <time>2021-12-03T21:48:45Z</time>
      </trkpt>
      <trkpt lat="47.10425" lon="-1.4189">
        <ele>34</ele>
        <time>2021-12-03T21:49:12Z</time>
      </trkpt>
      <trkpt lat="47.10422" lon="-1.41872">
        <ele>32</ele>
        <time>2021-12-03T21:49:29Z</time>
      </trkpt>
      <trkpt lat="47.10414" lon="-1.41862">
        <ele>30</ele>
        <time>2021-12-03T21:49:43Z</time>
      </trkpt>
      <trkpt lat="47.10399" lon="-1.41817">
        <ele>23</ele>
        <time>2021-12-03T21:50:28Z</time>
      </trkpt>
      <trkpt lat="47.10382" lon="-1.41808">
        <ele>20</ele>
        <time>2021-12-03T21:50:52Z</time>
      </trkpt>
      <trkpt lat="47.1037" lon="-1.41809">
        <ele>19</ele>
        <time>2021-12-03T21:51:08Z</time>
      </trkpt>
      <trkpt lat="47.10366" lon="-1.41807">
        <ele>18</ele>
        <time>2021-12-03T21:51:14Z</time>
      </trkpt>
      <trkpt lat="47.10362" lon="-1.41798">
        <ele>17</ele>
        <time>2021-12-03T21:51:24Z</time>
      </trkpt>
      <trkpt lat="47.1033" lon="-1.41771">
        <ele>12</ele>
        <time>2021-12-03T21:52:13Z</time>
      </trkpt>
      <trkpt lat="47.1029" lon="-1.41727">
        <ele>13</ele>
        <time>2021-12-03T21:53:20Z</time>
      </trkpt>
      <trkpt lat="47.1027" lon="-1.41714">
        <ele>13</ele>
        <time>2021-12-03T21:53:49Z</time>
      </trkpt>
      <trkpt lat="47.10214" lon="-1.4167">
        <ele>12</ele>
        <time>2021-12-03T21:55:14Z</time>
      </trkpt>
      <trkpt lat="47.10188" lon="-1.41636">
        <ele>13</ele>
        <time>2021-12-03T21:56:00Z</time>
      </trkpt>
      <trkpt lat="47.10163" lon="-1.41611">
        <ele>13</ele>
        <time>2021-12-03T21:56:40Z</time>
      </trkpt>
      <trkpt lat="47.10147" lon="-1.41575">
        <ele>13</ele>
        <time>2021-12-03T21:57:20Z</time>
      </trkpt>
      <trkpt lat="47.10138" lon="-1.41534">
        <ele>13</ele>
        <time>2021-12-03T21:57:59Z</time>
      </trkpt>
      <trkpt lat="47.10124" lon="-1.4149">
        <ele>13</ele>
        <time>2021-12-03T21:58:43Z</time>
      </trkpt>
      <trkpt lat="47.10107" lon="-1.41461">
        <ele>14</ele>
        <time>2021-12-03T21:59:18Z</time>
      </trkpt>
      <trkpt lat="47.1008" lon="-1.41426">
        <ele>13</ele>
        <time>2021-12-03T22:00:06Z</time>
      </trkpt>
      <trkpt lat="47.10072" lon="-1.4142">
        <ele>14</ele>
        <time>2021-12-03T22:00:18Z</time>
      </trkpt>
      <trkpt lat="47.10037" lon="-1.41377">
        <ele>18</ele>
        <time>2021-12-03T22:01:18Z</time>
      </trkpt>
      <trkpt lat="47.10003" lon="-1.41332">
        <ele>17</ele>
        <time>2021-12-03T22:02:20Z</time>
      </trkpt>
      <trkpt lat="47.09978" lon="-1.41294">
        <ele>18</ele>
        <time>2021-12-03T22:03:08Z</time>
      </trkpt>
      <trkpt lat="47.09956" lon="-1.41278">
        <ele>20</ele>
        <time>2021-12-03T22:03:40Z</time>
      </trkpt>
      <trkpt lat="47.09929" lon="-1.41238">
        <ele>19</ele>
        <time>2021-12-03T22:04:31Z</time>
      </trkpt>
      <trkpt lat="47.09847" lon="-1.41082">
        <ele>13</ele>
        <time>2021-12-03T22:07:31Z</time>
      </trkpt>
      <trkpt lat="47.09836" lon="-1.41053">
        <ele>12</ele>
        <time>2021-12-03T22:08:01Z</time>
      </trkpt>
      <trkpt lat="47.0981" lon="-1.40961">
        <ele>13</ele>
        <time>2021-12-03T22:09:31Z</time>
      </trkpt>
      <trkpt lat="47.09799" lon="-1.40903">
        <ele>14</ele>
        <time>2021-12-03T22:10:26Z</time>
      </trkpt>
      <trkpt lat="47.09791" lon="-1.40881">
        <ele>15</ele>
        <time>2021-12-03T22:10:49Z</time>
      </trkpt>
      <trkpt lat="47.09796" lon="-1.40862">
        <ele>14</ele>
        <time>2021-12-03T22:11:07Z</time>
      </trkpt>
      <trkpt lat="47.09774" lon="-1.40716">
        <ele>18</ele>
        <time>2021-12-03T22:13:23Z</time>
      </trkpt>
      <trkpt lat="47.0977" lon="-1.4067">
        <ele>19</ele>
        <time>2021-12-03T22:14:05Z</time>
      </trkpt>
      <trkpt lat="47.09749" lon="-1.40582">
        <ele>12</ele>
        <time>2021-12-03T22:15:30Z</time>
      </trkpt>
      <trkpt lat="47.09742" lon="-1.40563">
        <ele>14</ele>
        <time>2021-12-03T22:15:49Z</time>
      </trkpt>
      <trkpt lat="47.09723" lon="-1.40541">
        <ele>15</ele>
        <time>2021-12-03T22:16:22Z</time>
      </trkpt>
      <trkpt lat="47.09665" lon="-1.40507">
        <ele>14</ele>
        <time>2021-12-03T22:17:45Z</time>
      </trkpt>
      <trkpt lat="47.09653" lon="-1.40497">
        <ele>13</ele>
        <time>2021-12-03T22:18:03Z</time>
      </trkpt>
      <trkpt lat="47.0964" lon="-1.40491">
        <ele>14</ele>
        <time>2021-12-03T22:18:22Z</time>
      </trkpt>
      <trkpt lat="47.09603" lon="-1.40484">
        <ele>15</ele>
        <time>2021-12-03T22:19:11Z</time>
      </trkpt>
      <trkpt lat="47.09559" lon="-1.40486">
        <ele>15</ele>
        <time>2021-12-03T22:20:10Z</time>
      </trkpt>
      <trkpt lat="47.09505" lon="-1.40481">
        <ele>16</ele>
        <time>2021-12-03T22:21:22Z</time>
      </trkpt>
      <trkpt lat="47.09469" lon="-1.40467">
        <ele>17</ele>
        <time>2021-12-03T22:22:12Z</time>
      </trkpt>
      <trkpt lat="47.09429" lon="-1.40456">
        <ele>18</ele>
        <time>2021-12-03T22:23:06Z</time>
      </trkpt>
      <trkpt lat="47.09369" lon="-1.4043">
        <ele>17</ele>
        <time>2021-12-03T22:24:30Z</time>
      </trkpt>
      <trkpt lat="47.09263" lon="-1.4042">
        <ele>16</ele>
        <time>2021-12-03T22:26:52Z</time>
      </trkpt>
      <trkpt lat="47.09211" lon="-1.40383">
        <ele>17</ele>
        <time>2021-12-03T22:28:09Z</time>
      </trkpt>
      <trkpt lat="47.09185" lon="-1.40361">
        <ele>15</ele>
        <time>2021-12-03T22:28:49Z</time>
      </trkpt>
      <trkpt lat="47.09173" lon="-1.4039">
        <ele>18</ele>
        <time>2021-12-03T22:29:20Z</time>
      </trkpt>
      <trkpt lat="47.09185" lon="-1.40395">
        <ele>18</ele>
        <time>2021-12-03T22:29:36Z</time>
      </trkpt>
      <trkpt lat="47.09201" lon="-1.40408">
        <ele>18</ele>
        <time>2021-12-03T22:30:01Z</time>
      </trkpt>
      <trkpt lat="47.0921" lon="-1.40428">
        <ele>20</ele>
        <time>2021-12-03T22:30:22Z</time>
      </trkpt>
      <trkpt lat="47.09207" lon="-1.40435">
        <ele>21</ele>
        <time>2021-12-03T22:30:30Z</time>
      </trkpt>
      <trkpt lat="47.09171" lon="-1.40439">
        <ele>23</ele>
        <time>2021-12-03T22:31:18Z</time>
      </trkpt>
      <trkpt lat="47.09149" lon="-1.40448">
        <ele>25</ele>
        <time>2021-12-03T22:31:49Z</time>
      </trkpt>
      <trkpt lat="47.09136" lon="-1.40462">
        <ele>27</ele>
        <time>2021-12-03T22:32:10Z</time>
      </trkpt>
      <trkpt lat="47.09128" lon="-1.40475">
        <ele>28</ele>
        <time>2021-12-03T22:32:26Z</time>
      </trkpt>
      <trkpt lat="47.09124" lon="-1.40474">
        <ele>28</ele>
        <time>2021-12-03T22:32:31Z</time>
      </trkpt>
      <trkpt lat="47.09117" lon="-1.40468">
        <ele>28</ele>
        <time>2021-12-03T22:32:42Z</time>
      </trkpt>
      <trkpt lat="47.09117" lon="-1.40455">
        <ele>27</ele>
        <time>2021-12-03T22:32:54Z</time>
      </trkpt>
      <trkpt lat="47.09122" lon="-1.40438">
        <ele>26</ele>
        <time>2021-12-03T22:33:11Z</time>
      </trkpt>
      <trkpt lat="47.09016" lon="-1.40404">
        <ele>32</ele>
        <time>2021-12-03T22:35:36Z</time>
      </trkpt>
      <trkpt lat="47.08984" lon="-1.40383">
        <ele>33</ele>
        <time>2021-12-03T22:36:22Z</time>
      </trkpt>
      <trkpt lat="47.0896" lon="-1.40364">
        <ele>33</ele>
        <time>2021-12-03T22:36:59Z</time>
      </trkpt>
      <trkpt lat="47.08911" lon="-1.4032">
        <ele>33</ele>
        <time>2021-12-03T22:38:15Z</time>
      </trkpt>
      <trkpt lat="47.08881" lon="-1.40305">
        <ele>34</ele>
        <time>2021-12-03T22:38:58Z</time>
      </trkpt>
      <trkpt lat="47.08867" lon="-1.4028">
        <ele>34</ele>
        <time>2021-12-03T22:39:27Z</time>
      </trkpt>
      <trkpt lat="47.08861" lon="-1.40262">
        <ele>34</ele>
        <time>2021-12-03T22:39:45Z</time>
      </trkpt>
      <trkpt lat="47.08867" lon="-1.40206">
        <ele>28</ele>
        <time>2021-12-03T22:40:37Z</time>
      </trkpt>
      <trkpt lat="47.08823" lon="-1.40123">
        <ele>21</ele>
        <time>2021-12-03T22:42:12Z</time>
      </trkpt>
      <trkpt lat="47.08816" lon="-1.40102">
        <ele>18</ele>
        <time>2021-12-03T22:42:34Z</time>
      </trkpt>
      <trkpt lat="47.08801" lon="-1.40095">
        <ele>18</ele>
        <time>2021-12-03T22:42:55Z</time>
      </trkpt>
      <trkpt lat="47.08788" lon="-1.40097">
        <ele>19</ele>
        <time>2021-12-03T22:43:12Z</time>
      </trkpt>
      <trkpt lat="47.0878" lon="-1.4009">
        <ele>18</ele>
        <time>2021-12-03T22:43:24Z</time>
      </trkpt>
      <trkpt lat="47.0877" lon="-1.40092">
        <ele>19</ele>
        <time>2021-12-03T22:43:38Z</time>
      </trkpt>
      <trkpt lat="47.0877" lon="-1.40097">
        <ele>19</ele>
        <time>2021-12-03T22:43:43Z</time>
      </trkpt>
      <trkpt lat="47.08758" lon="-1.40098">
        <ele>20</ele>
        <time>2021-12-03T22:43:59Z</time>
      </trkpt>
      <trkpt lat="47.08753" lon="-1.40094">
        <ele>20</ele>
        <time>2021-12-03T22:44:06Z</time>
      </trkpt>
      <trkpt lat="47.08735" lon="-1.40097">
        <ele>20</ele>
        <time>2021-12-03T22:44:30Z</time>
      </trkpt>
      <trkpt lat="47.08726" lon="-1.40104">
        <ele>21</ele>
        <time>2021-12-03T22:44:44Z</time>
      </trkpt>
      <trkpt lat="47.08697" lon="-1.40107">
        <ele>21</ele>
        <time>2021-12-03T22:45:23Z</time>
      </trkpt>
      <trkpt lat="47.08668" lon="-1.40137">
        <ele>24</ele>
        <time>2021-12-03T22:46:10Z</time>
      </trkpt>
      <trkpt lat="47.08647" lon="-1.4017">
        <ele>30</ele>
        <time>2021-12-03T22:46:51Z</time>
      </trkpt>
      <trkpt lat="47.0861" lon="-1.40239">
        <ele>33</ele>
        <time>2021-12-03T22:48:11Z</time>
      </trkpt>
      <trkpt lat="47.08605" lon="-1.40261">
        <ele>33</ele>
        <time>2021-12-03T22:48:32Z</time>
      </trkpt>
      <trkpt lat="47.08591" lon="-1.40246">
        <ele>33</ele>
        <time>2021-12-03T22:48:55Z</time>
      </trkpt>
      <trkpt lat="47.08578" lon="-1.40237">
        <ele>33</ele>
        <time>2021-12-03T22:49:14Z</time>
      </trkpt>
      <trkpt lat="47.08563" lon="-1.40245">
        <ele>34</ele>
        <time>2021-12-03T22:49:36Z</time>
      </trkpt>
      <trkpt lat="47.08511" lon="-1.40204">
        <ele>37</ele>
        <time>2021-12-03T22:50:54Z</time>
      </trkpt>
      <trkpt lat="47.08485" lon="-1.40187">
        <ele>37</ele>
        <time>2021-12-03T22:51:32Z</time>
      </trkpt>
      <trkpt lat="47.08448" lon="-1.40151">
        <ele>35</ele>
        <time>2021-12-03T22:52:32Z</time>
      </trkpt>
      <trkpt lat="47.0844" lon="-1.40147">
        <ele>35</ele>
        <time>2021-12-03T22:52:43Z</time>
      </trkpt>
      <trkpt lat="47.08376" lon="-1.40131">
        <ele>32</ele>
        <time>2021-12-03T22:54:09Z</time>
      </trkpt>
      <trkpt lat="47.08355" lon="-1.4014">
        <ele>33</ele>
        <time>2021-12-03T22:54:39Z</time>
      </trkpt>
      <trkpt lat="47.08352" lon="-1.40135">
        <ele>32</ele>
        <time>2021-12-03T22:54:45Z</time>
      </trkpt>
      <trkpt lat="47.08282" lon="-1.40075">
        <ele>30</ele>
        <time>2021-12-03T22:56:33Z</time>
      </trkpt>
      <trkpt lat="47.0825" lon="-1.40068">
        <ele>32</ele>
        <time>2021-12-03T22:57:16Z</time>
      </trkpt>
      <trkpt lat="47.08237" lon="-1.40052">
        <ele>31</ele>
        <time>2021-12-03T22:57:39Z</time>
      </trkpt>
      <trkpt lat="47.08225" lon="-1.40051">
        <ele>31</ele>
        <time>2021-12-03T22:57:55Z</time>
      </trkpt>
      <trkpt lat="47.08208" lon="-1.40031">
        <ele>31</ele>
        <time>2021-12-03T22:58:24Z</time>
      </trkpt>
      <trkpt lat="47.082" lon="-1.40025">
        <ele>31</ele>
        <time>2021-12-03T22:58:36Z</time>
      </trkpt>
      <trkpt lat="47.08185" lon="-1.39995">
        <ele>31</ele>
        <time>2021-12-03T22:59:10Z</time>
      </trkpt>
      <trkpt lat="47.08163" lon="-1.39971">
        <ele>30</ele>
        <time>2021-12-03T22:59:46Z</time>
      </trkpt>
      <trkpt lat="47.08141" lon="-1.39938">
        <ele>28</ele>
        <time>2021-12-03T23:00:28Z</time>
      </trkpt>
      <trkpt lat="47.0814" lon="-1.39929">
        <ele>27</ele>
        <time>2021-12-03T23:00:36Z</time>
      </trkpt>
      <trkpt lat="47.0813" lon="-1.39913">
        <ele>26</ele>
        <time>2021-12-03T23:00:56Z</time>
      </trkpt>
      <trkpt lat="47.08133" lon="-1.39898">
        <ele>25</ele>
        <time>2021-12-03T23:01:10Z</time>
      </trkpt>
      <trkpt lat="47.08131" lon="-1.39886">
        <ele>24</ele>
        <time>2021-12-03T23:01:22Z</time>
      </trkpt>
      <trkpt lat="47.08118" lon="-1.39849">
        <ele>21</ele>
        <time>2021-12-03T23:01:59Z</time>
      </trkpt>
      <trkpt lat="47.08105" lon="-1.39836">
        <ele>21</ele>
        <time>2021-12-03T23:02:20Z</time>
      </trkpt>
      <trkpt lat="47.0809" lon="-1.39829">
        <ele>21</ele>
        <time>2021-12-03T23:02:41Z</time>
      </trkpt>
      <trkpt lat="47.08079" lon="-1.39817">
        <ele>22</ele>
        <time>2021-12-03T23:03:00Z</time>
      </trkpt>
      <trkpt lat="47.08077" lon="-1.3981">
        <ele>22</ele>
        <time>2021-12-03T23:03:07Z</time>
      </trkpt>
      <trkpt lat="47.08069" lon="-1.39809">
        <ele>22</ele>
        <time>2021-12-03T23:03:17Z</time>
      </trkpt>
      <trkpt lat="47.08066" lon="-1.39816">
        <ele>23</ele>
        <time>2021-12-03T23:03:25Z</time>
      </trkpt>
      <trkpt lat="47.0803" lon="-1.39801">
        <ele>23</ele>
        <time>2021-12-03T23:04:15Z</time>
      </trkpt>
      <trkpt lat="47.08013" lon="-1.39805">
        <ele>25</ele>
        <time>2021-12-03T23:04:38Z</time>
      </trkpt>
      <trkpt lat="47.08004" lon="-1.39804">
        <ele>25</ele>
        <time>2021-12-03T23:04:50Z</time>
      </trkpt>
      <trkpt lat="47.07966" lon="-1.39775">
        <ele>24</ele>
        <time>2021-12-03T23:05:47Z</time>
      </trkpt>
      <trkpt lat="47.07957" lon="-1.39774">
        <ele>25</ele>
        <time>2021-12-03T23:05:59Z</time>
      </trkpt>
      <trkpt lat="47.07938" lon="-1.39807">
        <ele>32</ele>
        <time>2021-12-03T23:06:38Z</time>
      </trkpt>
      <trkpt lat="47.07926" lon="-1.39816">
        <ele>34</ele>
        <time>2021-12-03T23:06:56Z</time>
      </trkpt>
      <trkpt lat="47.07901" lon="-1.39823">
        <ele>37</ele>
        <time>2021-12-03T23:07:30Z</time>
      </trkpt>
      <trkpt lat="47.07881" lon="-1.3984">
        <ele>39</ele>
        <time>2021-12-03T23:08:01Z</time>
      </trkpt>
      <trkpt lat="47.07868" lon="-1.39819">
        <ele>38</ele>
        <time>2021-12-03T23:08:27Z</time>
      </trkpt>
      <trkpt lat="47.07833" lon="-1.39789">
        <ele>37</ele>
        <time>2021-12-03T23:09:21Z</time>
      </trkpt>
      <trkpt lat="47.07798" lon="-1.39737">
        <ele>34</ele>
        <time>2021-12-03T23:10:27Z</time>
      </trkpt>
      <trkpt lat="47.07739" lon="-1.39816">
        <ele>39</ele>
        <time>2021-12-03T23:12:14Z</time>
      </trkpt>
    </trkseg>
  </trk>
</gpx>